createdAt,value
2019-03-30T00:00:46.651Z,99.90
2019-03-30T00:03:16.285Z,99.90
2019-03-30T00:05:45.917Z,99.90
2019-03-30T00:08:15.513Z,99.90
2019-03-30T00:10:45.160Z,99.90
2019-03-30T00:13:14.763Z,99.90
2019-03-30T00:15:44.459Z,99.90
2019-03-30T00:18:14.054Z,99.90
2019-03-30T00:20:43.680Z,99.90
2019-03-30T00:23:13.291Z,99.90
2019-03-30T00:25:42.932Z,99.90
2019-03-30T00:28:12.615Z,99.90
2019-03-30T00:30:42.227Z,99.90
2019-03-30T00:33:11.835Z,99.90
2019-03-30T00:35:41.555Z,99.90
2019-03-30T00:38:11.163Z,99.90
2019-03-30T00:40:40.755Z,99.90
2019-03-30T00:43:10.460Z,99.90
2019-03-30T00:45:40.122Z,99.90
2019-03-30T00:48:09.735Z,99.90
2019-03-30T00:50:39.555Z,99.90
2019-03-30T00:53:09.170Z,99.90
2019-03-30T00:55:38.779Z,99.90
2019-03-30T00:58:08.589Z,99.90
2019-03-30T01:00:38.176Z,99.90
2019-03-30T01:03:07.801Z,99.90
2019-03-30T01:05:37.434Z,99.90
2019-03-30T01:08:07.038Z,99.90
2019-03-30T01:10:36.645Z,99.90
2019-03-30T01:13:06.344Z,99.90
2019-03-30T01:15:36.056Z,99.90
2019-03-30T01:18:05.659Z,99.90
2019-03-30T01:20:35.280Z,99.90
2019-03-30T01:23:04.932Z,99.90
2019-03-30T01:25:34.528Z,99.90
2019-03-30T01:28:04.136Z,99.90
2019-03-30T01:30:33.738Z,99.90
2019-03-30T01:33:03.371Z,99.90
2019-03-30T01:35:32.983Z,99.90
2019-03-30T01:38:02.641Z,99.90
2019-03-30T01:40:32.252Z,99.90
2019-03-30T01:43:01.811Z,99.90
2019-03-30T01:45:31.428Z,99.90
2019-03-30T01:48:01.090Z,99.90
2019-03-30T01:50:30.688Z,99.90
2019-03-30T01:53:00.308Z,99.90
2019-03-30T01:55:29.945Z,99.90
2019-03-30T01:57:59.546Z,99.90
2019-03-30T02:00:29.151Z,99.90
2019-03-30T02:02:58.743Z,99.90
2019-03-30T02:05:28.351Z,99.90
2019-03-30T02:07:57.959Z,99.90
2019-03-30T02:10:41.621Z,99.90
2019-03-30T02:13:11.415Z,99.90
2019-03-30T02:15:41.298Z,99.90
2019-03-30T02:18:11.219Z,99.90
2019-03-30T02:20:42.538Z,99.90
2019-03-30T02:23:12.136Z,99.90
2019-03-30T02:25:41.757Z,99.90
2019-03-30T02:28:11.386Z,99.90
2019-03-30T02:30:40.996Z,99.90
2019-03-30T02:33:10.724Z,99.90
2019-03-30T02:35:40.326Z,99.90
2019-03-30T02:38:09.972Z,99.90
2019-03-30T02:40:39.649Z,99.90
2019-03-30T02:43:09.258Z,99.90
2019-03-30T02:45:38.945Z,99.90
2019-03-30T02:48:08.566Z,99.90
2019-03-30T02:50:49.096Z,99.90
2019-03-30T02:53:09.519Z,99.90
2019-03-30T02:55:39.126Z,99.90
2019-03-30T02:58:08.741Z,99.90
2019-03-30T03:00:38.467Z,99.90
2019-03-30T03:03:08.086Z,99.90
2019-03-30T03:05:37.784Z,99.90
2019-03-30T03:08:07.426Z,99.90
2019-03-30T03:10:37.053Z,99.90
2019-03-30T03:13:06.691Z,99.90
2019-03-30T03:15:36.312Z,99.90
2019-03-30T03:18:05.963Z,99.90
2019-03-30T03:20:35.586Z,99.90
2019-03-30T03:23:05.209Z,99.90
2019-03-30T03:25:34.795Z,99.90
2019-03-30T03:28:04.426Z,99.90
2019-03-30T03:30:34.058Z,99.90
2019-03-30T03:33:03.705Z,99.90
2019-03-30T03:35:33.361Z,99.90
2019-03-30T03:38:02.961Z,99.90
2019-03-30T03:40:32.594Z,99.90
2019-03-30T03:43:02.320Z,99.90
2019-03-30T03:45:31.931Z,99.90
2019-03-30T03:48:01.584Z,99.90
2019-03-30T03:50:44.451Z,99.90
2019-03-30T03:53:15.989Z,99.90
2019-03-30T03:55:46.058Z,99.90
2019-03-30T03:58:17.361Z,99.90
2019-03-30T04:00:47.288Z,99.90
2019-03-30T04:03:20.344Z,99.90
2019-03-30T04:05:50.211Z,99.90
2019-03-30T04:08:20.370Z,99.90
2019-03-30T04:10:51.529Z,99.90
2019-03-30T04:13:23.387Z,99.90
2019-03-30T04:15:53.026Z,99.90
2019-03-30T04:18:22.638Z,99.90
2019-03-30T04:20:52.306Z,99.90
2019-03-30T04:23:21.988Z,99.90
2019-03-30T04:25:51.513Z,99.90
2019-03-30T04:28:21.136Z,99.90
2019-03-30T04:30:50.760Z,99.90
2019-03-30T04:33:20.421Z,99.90
2019-03-30T04:35:50.044Z,99.90
2019-03-30T04:38:19.758Z,99.90
2019-03-30T04:40:49.453Z,99.90
2019-03-30T04:43:19.083Z,99.90
2019-03-30T04:45:48.711Z,99.90
2019-03-30T04:48:18.265Z,99.90
2019-03-30T04:50:47.905Z,99.90
2019-03-30T04:53:17.537Z,99.90
2019-03-30T04:55:47.147Z,99.90
2019-03-30T04:58:16.733Z,99.90
2019-03-30T05:00:46.357Z,99.90
2019-03-30T05:03:15.949Z,99.90
2019-03-30T05:05:45.583Z,99.90
2019-03-30T05:08:15.256Z,99.90
2019-03-30T05:10:47.899Z,99.90
2019-03-30T05:13:17.521Z,99.90
2019-03-30T05:15:47.191Z,99.90
2019-03-30T05:18:16.802Z,99.90
2019-03-30T05:20:46.512Z,99.90
2019-03-30T05:23:16.126Z,99.90
2019-03-30T05:25:45.865Z,99.90
2019-03-30T05:28:15.521Z,99.90
2019-03-30T05:30:45.236Z,99.90
2019-03-30T05:33:14.896Z,99.90
2019-03-30T05:35:44.607Z,99.90
2019-03-30T05:38:14.239Z,99.90
2019-03-30T05:40:43.857Z,99.90
2019-03-30T05:43:13.485Z,99.90
2019-03-30T05:45:43.155Z,99.90
2019-03-30T05:48:12.776Z,99.90
2019-03-30T05:50:42.313Z,99.90
2019-03-30T05:53:11.943Z,99.90
2019-03-30T05:55:41.581Z,99.90
2019-03-30T05:58:11.186Z,99.90
2019-03-30T06:00:40.917Z,99.90
2019-03-30T06:03:10.692Z,99.90
2019-03-30T06:05:40.408Z,99.90
2019-03-30T06:08:10.057Z,99.90
2019-03-30T06:10:39.804Z,99.90
2019-03-30T06:13:09.442Z,99.90
2019-03-30T06:15:39.141Z,99.90
2019-03-30T06:18:11.277Z,99.90
2019-03-30T06:20:40.141Z,99.90
2019-03-30T06:23:09.775Z,99.90
2019-03-30T06:25:39.415Z,99.90
2019-03-30T06:28:09.043Z,99.90
2019-03-30T06:30:38.735Z,99.90
2019-03-30T06:33:08.439Z,99.90
2019-03-30T06:35:38.100Z,99.90
2019-03-30T06:38:07.716Z,99.90
2019-03-30T06:40:37.312Z,99.90
2019-03-30T06:43:07.938Z,99.90
2019-03-30T06:45:37.837Z,99.90
2019-03-30T06:48:07.538Z,99.90
2019-03-30T06:50:37.174Z,99.90
2019-03-30T06:53:06.832Z,99.90
2019-03-30T06:55:37.013Z,99.90
2019-03-30T06:58:06.666Z,99.90
2019-03-30T07:00:36.995Z,99.90
2019-03-30T07:03:07.959Z,99.90
2019-03-30T07:05:40.995Z,99.90
2019-03-30T07:08:13.796Z,99.90
2019-03-30T07:10:45.342Z,99.90
2019-03-30T07:13:15.343Z,99.90
2019-03-30T07:15:49.469Z,99.90
2019-03-30T07:18:19.754Z,99.90
2019-03-30T07:20:49.505Z,99.90
2019-03-30T07:23:19.197Z,99.90
2019-03-30T07:25:49.032Z,99.90
2019-03-30T07:28:18.642Z,99.90
2019-03-30T07:30:48.320Z,99.90
2019-03-30T07:33:18.032Z,99.90
2019-03-30T07:35:47.743Z,99.90
2019-03-30T07:38:17.379Z,99.90
2019-03-30T07:40:47.041Z,99.90
2019-03-30T07:43:16.732Z,99.90
2019-03-30T07:45:46.338Z,99.90
2019-03-30T07:48:15.996Z,99.90
2019-03-30T07:50:45.678Z,99.90
2019-03-30T07:53:26.390Z,99.90
2019-03-30T07:55:46.748Z,99.90
2019-03-30T07:58:16.466Z,99.90
2019-03-30T08:00:46.081Z,99.90
2019-03-30T08:03:15.724Z,99.90
2019-03-30T08:05:45.348Z,99.90
2019-03-30T08:08:15.072Z,99.90
2019-03-30T08:10:44.692Z,99.90
2019-03-30T08:13:14.325Z,99.90
2019-03-30T08:15:43.957Z,99.90
2019-03-30T08:18:13.583Z,99.90
2019-03-30T08:20:43.325Z,99.90
2019-03-30T08:23:12.944Z,99.90
2019-03-30T08:25:42.562Z,99.90
2019-03-30T08:28:12.183Z,99.90
2019-03-30T08:30:41.792Z,99.90
2019-03-30T08:33:11.421Z,99.90
2019-03-30T08:35:41.033Z,99.90
2019-03-30T08:38:10.683Z,99.90
2019-03-30T08:40:40.371Z,99.90
2019-03-30T08:43:09.975Z,99.90
2019-03-30T08:45:39.588Z,99.90
2019-03-30T08:48:09.226Z,99.90
2019-03-30T08:50:39.036Z,99.90
2019-03-30T08:53:08.690Z,99.90
2019-03-30T08:55:38.323Z,99.90
2019-03-30T08:58:07.964Z,99.90
2019-03-30T09:00:39.289Z,99.90
2019-03-30T09:03:08.989Z,98.80
2019-03-30T09:05:38.607Z,98.60
2019-03-30T09:08:08.318Z,99.20
2019-03-30T09:10:37.999Z,98.80
2019-03-30T09:13:07.639Z,98.40
2019-03-30T09:15:37.248Z,97.90
2019-03-30T09:18:06.958Z,96.90
2019-03-30T09:20:36.562Z,96.20
2019-03-30T09:23:06.191Z,94.70
2019-03-30T09:25:35.829Z,93.90
2019-03-30T09:28:05.562Z,91.20
2019-03-30T09:30:35.176Z,91.60
2019-03-30T09:33:04.812Z,90.90
2019-03-30T09:35:34.676Z,91.00
2019-03-30T09:38:04.285Z,91.20
2019-03-30T09:40:33.955Z,90.30
2019-03-30T09:43:03.639Z,91.30
2019-03-30T09:45:33.324Z,92.70
2019-03-30T09:48:02.938Z,90.20
2019-03-30T09:50:32.586Z,89.10
2019-03-30T09:53:02.925Z,87.90
2019-03-30T09:55:32.565Z,87.00
2019-03-30T09:58:02.276Z,87.00
2019-03-30T10:00:31.891Z,85.00
2019-03-30T10:03:01.530Z,86.20
2019-03-30T10:05:31.129Z,84.60
2019-03-30T10:08:00.837Z,85.90
2019-03-30T10:10:30.447Z,86.30
2019-03-30T10:13:00.150Z,82.90
2019-03-30T10:15:29.792Z,81.20
2019-03-30T10:17:59.445Z,76.30
2019-03-30T10:20:29.070Z,77.50
2019-03-30T10:22:58.727Z,79.50
2019-03-30T10:25:28.436Z,80.70
2019-03-30T10:27:58.411Z,79.60
2019-03-30T10:30:28.018Z,78.70
2019-03-30T10:32:57.729Z,78.40
2019-03-30T10:35:27.365Z,76.10
2019-03-30T10:37:56.986Z,73.50
2019-03-30T10:40:26.711Z,72.90
2019-03-30T10:42:56.358Z,74.70
2019-03-30T10:45:26.142Z,74.50
2019-03-30T10:47:55.837Z,74.70
2019-03-30T10:50:25.493Z,72.00
2019-03-30T10:52:55.111Z,71.50
2019-03-30T10:55:24.705Z,68.40
2019-03-30T10:57:54.354Z,67.30
2019-03-30T11:00:42.584Z,64.80
2019-03-30T11:03:12.227Z,64.60
2019-03-30T11:05:41.907Z,63.10
2019-03-30T11:08:11.527Z,62.90
2019-03-30T11:10:41.144Z,62.90
2019-03-30T11:13:10.865Z,63.50
2019-03-30T11:15:40.519Z,60.70
2019-03-30T11:18:10.301Z,60.50
2019-03-30T11:20:40.042Z,60.20
2019-03-30T11:23:09.679Z,59.50
2019-03-30T11:25:39.447Z,59.90
2019-03-30T11:28:09.153Z,58.30
2019-03-30T11:30:38.760Z,61.00
2019-03-30T11:33:09.287Z,62.70
2019-03-30T11:35:38.918Z,61.80
2019-03-30T11:38:08.563Z,58.70
2019-03-30T11:40:38.203Z,58.80
2019-03-30T11:43:07.777Z,59.30
2019-03-30T11:45:37.386Z,58.20
2019-03-30T11:48:07.065Z,57.10
2019-03-30T11:50:36.693Z,56.60
2019-03-30T11:53:06.340Z,56.50
2019-03-30T11:55:36.301Z,57.10
2019-03-30T11:58:05.971Z,57.30
2019-03-30T12:00:35.604Z,56.20
2019-03-30T12:03:05.236Z,56.10
2019-03-30T12:05:34.910Z,55.90
2019-03-30T12:08:04.674Z,56.60
2019-03-30T12:10:34.287Z,57.30
2019-03-30T12:13:04.063Z,57.30
2019-03-30T12:15:33.699Z,56.60
2019-03-30T12:18:03.429Z,57.10
2019-03-30T12:20:33.169Z,55.70
2019-03-30T12:23:02.882Z,55.00
2019-03-30T12:25:35.971Z,55.80
2019-03-30T12:28:04.067Z,55.00
2019-03-30T12:30:33.851Z,54.30
2019-03-30T12:33:03.518Z,54.40
2019-03-30T12:35:33.159Z,53.90
2019-03-30T12:38:03.012Z,52.90
2019-03-30T12:40:32.710Z,53.20
2019-03-30T12:43:02.450Z,53.40
2019-03-30T12:45:32.246Z,53.50
2019-03-30T12:48:01.899Z,53.00
2019-03-30T12:50:31.615Z,52.10
2019-03-30T12:53:01.278Z,53.20
2019-03-30T12:55:30.905Z,52.80
2019-03-30T12:58:00.667Z,52.80
2019-03-30T13:00:30.404Z,52.80
2019-03-30T13:03:00.055Z,52.10
2019-03-30T13:05:29.774Z,52.70
2019-03-30T13:07:59.423Z,52.90
2019-03-30T13:10:29.043Z,51.10
2019-03-30T13:12:58.729Z,51.00
2019-03-30T13:15:28.559Z,47.80
2019-03-30T13:17:58.405Z,48.20
2019-03-30T13:20:28.211Z,48.20
2019-03-30T13:22:57.969Z,47.90
2019-03-30T13:25:27.877Z,47.30
2019-03-30T13:27:58.058Z,47.10
2019-03-30T13:30:27.774Z,48.00
2019-03-30T13:32:57.466Z,48.00
2019-03-30T13:35:27.144Z,48.70
2019-03-30T13:37:56.937Z,48.50
2019-03-30T13:40:26.614Z,48.60
2019-03-30T13:42:56.446Z,49.10
2019-03-30T13:45:26.138Z,50.20
2019-03-30T13:47:55.888Z,48.30
2019-03-30T13:50:25.724Z,48.70
2019-03-30T13:52:55.470Z,47.20
2019-03-30T13:55:25.309Z,48.10
2019-03-30T13:57:55.095Z,47.20
2019-03-30T14:00:24.739Z,46.20
2019-03-30T14:02:54.442Z,46.20
2019-03-30T14:05:24.195Z,46.00
2019-03-30T14:07:54.054Z,45.60
2019-03-30T14:10:23.768Z,46.80
2019-03-30T14:12:53.484Z,46.20
2019-03-30T14:15:23.298Z,45.70
2019-03-30T14:17:53.102Z,45.50
2019-03-30T14:20:22.862Z,46.40
2019-03-30T14:22:52.607Z,45.40
2019-03-30T14:25:22.387Z,45.70
2019-03-30T14:27:52.221Z,46.10
2019-03-30T14:30:22.033Z,46.70
2019-03-30T14:32:51.815Z,46.90
2019-03-30T14:35:21.497Z,46.60
2019-03-30T14:37:51.240Z,46.70
2019-03-30T14:40:20.876Z,46.80
2019-03-30T14:42:50.855Z,47.50
2019-03-30T14:45:20.482Z,47.90
2019-03-30T14:47:50.102Z,48.10
2019-03-30T14:50:19.716Z,47.10
2019-03-30T14:52:49.322Z,46.70
2019-03-30T14:55:18.991Z,46.10
2019-03-30T14:57:48.729Z,44.60
2019-03-30T15:00:18.443Z,44.70
2019-03-30T15:02:48.136Z,44.00
2019-03-30T15:05:17.837Z,45.10
2019-03-30T15:07:47.534Z,44.80
2019-03-30T15:10:17.170Z,45.30
2019-03-30T15:12:46.792Z,46.30
2019-03-30T15:15:16.757Z,46.90
2019-03-30T15:17:46.455Z,46.80
2019-03-30T15:20:16.079Z,46.80
2019-03-30T15:22:45.818Z,47.10
2019-03-30T15:25:16.302Z,46.80
2019-03-30T15:27:45.860Z,46.40
2019-03-30T15:30:15.558Z,46.30
2019-03-30T15:32:45.174Z,46.50
2019-03-30T15:35:14.974Z,46.60
2019-03-30T15:37:44.618Z,48.10
2019-03-30T15:40:14.246Z,49.40
2019-03-30T15:42:43.888Z,49.00
2019-03-30T15:45:13.996Z,47.20
2019-03-30T15:47:43.614Z,46.30
2019-03-30T15:50:14.082Z,46.70
2019-03-30T15:52:43.693Z,47.30
2019-03-30T15:55:13.366Z,47.80
2019-03-30T15:57:43.046Z,48.60
2019-03-30T16:00:14.540Z,48.50
2019-03-30T16:02:44.199Z,48.20
2019-03-30T16:05:15.805Z,47.30
2019-03-30T16:07:45.621Z,47.10
2019-03-30T16:10:15.311Z,46.00
2019-03-30T16:12:44.959Z,46.10
2019-03-30T16:15:14.953Z,45.60
2019-03-30T16:17:44.598Z,45.60
2019-03-30T16:20:14.914Z,45.40
2019-03-30T16:22:44.677Z,44.80
2019-03-30T16:25:14.504Z,45.00
2019-03-30T16:27:44.247Z,45.80
2019-03-30T16:30:14.364Z,45.10
2019-03-30T16:32:44.159Z,45.10
2019-03-30T16:35:14.000Z,45.50
2019-03-30T16:37:43.766Z,45.70
2019-03-30T16:40:14.657Z,45.50
2019-03-30T16:42:44.350Z,45.60
2019-03-30T16:45:14.085Z,45.80
2019-03-30T16:47:44.071Z,45.90
2019-03-30T16:50:15.763Z,46.00
2019-03-30T16:52:45.567Z,46.20
2019-03-30T16:55:15.417Z,46.40
2019-03-30T16:57:45.273Z,47.00
2019-03-30T17:00:15.009Z,46.20
2019-03-30T17:02:44.895Z,46.40
2019-03-30T17:05:14.945Z,46.20
2019-03-30T17:07:44.669Z,46.80
2019-03-30T17:10:14.608Z,45.90
2019-03-30T17:12:44.506Z,46.40
2019-03-30T17:15:14.260Z,46.80
2019-03-30T17:17:43.880Z,47.10
2019-03-30T17:20:13.486Z,47.10
2019-03-30T17:22:43.119Z,46.40
2019-03-30T17:25:12.735Z,46.90
2019-03-30T17:27:56.924Z,47.30
2019-03-30T17:30:13.887Z,47.50
2019-03-30T17:32:43.542Z,48.00
2019-03-30T17:35:13.165Z,48.60
2019-03-30T17:37:42.873Z,49.40
2019-03-30T17:40:13.189Z,48.90
2019-03-30T17:42:42.865Z,49.60
2019-03-30T17:45:12.879Z,49.20
2019-03-30T17:47:42.497Z,49.30
2019-03-30T17:50:13.688Z,49.50
2019-03-30T17:52:43.333Z,49.90
2019-03-30T17:55:12.996Z,50.40
2019-03-30T17:57:42.593Z,51.30
2019-03-30T18:00:14.920Z,51.60
2019-03-30T18:02:44.519Z,52.20
2019-03-30T18:05:14.830Z,52.90
2019-03-30T18:07:44.437Z,53.60
2019-03-30T18:10:14.276Z,54.50
2019-03-30T18:12:44.061Z,54.30
2019-03-30T18:15:14.225Z,53.90
2019-03-30T18:17:43.863Z,54.20
2019-03-30T18:20:14.951Z,54.40
2019-03-30T18:22:44.677Z,54.70
2019-03-30T18:25:14.776Z,54.80
2019-03-30T18:27:44.504Z,54.70
2019-03-30T18:30:14.537Z,54.90
2019-03-30T18:32:44.544Z,55.20
2019-03-30T18:35:14.325Z,55.20
2019-03-30T18:37:44.263Z,55.10
2019-03-30T18:40:26.643Z,55.10
2019-03-30T18:42:56.620Z,55.00
2019-03-30T18:45:27.721Z,55.20
2019-03-30T18:48:10.513Z,55.40
2019-03-30T18:50:41.047Z,55.40
2019-03-30T18:53:10.691Z,55.20
2019-03-30T18:55:40.342Z,55.10
2019-03-30T18:58:09.930Z,55.30
2019-03-30T19:00:39.586Z,55.20
2019-03-30T19:03:09.217Z,55.20
2019-03-30T19:05:38.841Z,55.40
2019-03-30T19:08:08.452Z,55.40
2019-03-30T19:10:38.201Z,55.50
2019-03-30T19:13:07.969Z,55.60
2019-03-30T19:15:37.607Z,55.80
2019-03-30T19:18:07.234Z,56.10
2019-03-30T19:20:36.858Z,56.50
2019-03-30T19:23:06.548Z,56.80
2019-03-30T19:25:36.459Z,57.00
2019-03-30T19:28:06.190Z,57.20
2019-03-30T19:30:35.968Z,57.50
2019-03-30T19:33:05.616Z,57.90
2019-03-30T19:35:35.233Z,58.00
2019-03-30T19:38:05.632Z,57.90
2019-03-30T19:40:35.343Z,58.10
2019-03-30T19:43:04.981Z,58.90
2019-03-30T19:45:34.620Z,58.80
2019-03-30T19:48:04.328Z,58.70
2019-03-30T19:50:34.099Z,58.80
2019-03-30T19:53:03.882Z,59.40
2019-03-30T19:55:33.649Z,59.00
2019-03-30T19:58:03.334Z,59.00
2019-03-30T20:00:33.639Z,59.30
2019-03-30T20:03:03.291Z,59.70
2019-03-30T20:05:32.907Z,59.80
2019-03-30T20:08:11.902Z,60.00
2019-03-30T20:10:34.011Z,60.30
2019-03-30T20:13:03.762Z,61.30
2019-03-30T20:15:33.399Z,60.60
2019-03-30T20:18:03.031Z,60.80
2019-03-30T20:20:32.659Z,61.00
2019-03-30T20:23:02.306Z,61.30
2019-03-30T20:25:31.939Z,61.80
2019-03-30T20:28:01.667Z,62.10
2019-03-30T20:30:31.308Z,62.40
2019-03-30T20:33:01.064Z,62.30
2019-03-30T20:35:30.754Z,62.30
2019-03-30T20:38:00.453Z,62.30
2019-03-30T20:40:30.084Z,62.60
2019-03-30T20:42:59.715Z,62.90
2019-03-30T20:45:29.358Z,63.10
2019-03-30T20:47:58.972Z,63.40
2019-03-30T20:50:28.630Z,63.60
2019-03-30T20:52:58.194Z,64.10
2019-03-30T20:55:27.819Z,64.40
2019-03-30T20:57:57.452Z,64.70
2019-03-30T21:00:27.103Z,65.20
2019-03-30T21:02:56.847Z,65.80
2019-03-30T21:05:26.509Z,66.10
2019-03-30T21:07:56.085Z,66.40
2019-03-30T21:10:25.723Z,66.90
2019-03-30T21:12:55.310Z,67.30
2019-03-30T21:15:24.969Z,67.50
2019-03-30T21:17:54.598Z,68.50
2019-03-30T21:20:24.314Z,68.00
2019-03-30T21:22:54.014Z,68.30
2019-03-30T21:25:23.743Z,68.70
2019-03-30T21:27:53.353Z,69.00
2019-03-30T21:30:23.055Z,69.70
2019-03-30T21:32:52.719Z,70.40
2019-03-30T21:35:22.451Z,71.00
2019-03-30T21:37:52.090Z,72.10
2019-03-30T21:40:21.819Z,73.50
2019-03-30T21:42:51.480Z,74.80
2019-03-30T21:45:21.162Z,76.20
2019-03-30T21:47:50.793Z,78.50
2019-03-30T21:50:20.396Z,79.70
2019-03-30T21:52:50.058Z,80.60
2019-03-30T21:55:19.792Z,81.40
2019-03-30T21:57:49.428Z,81.90
2019-03-30T22:00:33.813Z,82.70
2019-03-30T22:03:03.437Z,84.10
2019-03-30T22:05:33.268Z,85.80
2019-03-30T22:08:03.061Z,87.80
2019-03-30T22:10:32.757Z,90.00
2019-03-30T22:13:02.510Z,90.70
2019-03-30T22:15:32.206Z,91.40
2019-03-30T22:18:01.822Z,92.10
2019-03-30T22:20:31.580Z,92.80
2019-03-30T22:23:01.213Z,93.30
2019-03-30T22:25:30.876Z,93.60
2019-03-30T22:28:00.690Z,94.00
2019-03-30T22:30:30.386Z,94.40
2019-03-30T22:33:00.022Z,95.10
2019-03-30T22:35:29.806Z,95.90
2019-03-30T22:37:59.547Z,96.50
2019-03-30T22:40:29.373Z,97.40
2019-03-30T22:42:59.048Z,98.60
2019-03-30T22:45:28.736Z,99.70
2019-03-30T22:47:58.353Z,99.90
2019-03-30T22:50:27.958Z,99.90
2019-03-30T22:52:57.619Z,99.90
2019-03-30T22:55:27.240Z,99.90
2019-03-30T22:57:56.862Z,99.90
2019-03-30T23:00:44.230Z,99.90
2019-03-30T23:03:14.255Z,99.90
2019-03-30T23:05:43.907Z,99.90
2019-03-30T23:08:13.620Z,99.90
2019-03-30T23:10:43.273Z,99.90
2019-03-30T23:13:12.927Z,99.90
2019-03-30T23:15:42.622Z,99.90
2019-03-30T23:18:12.254Z,99.90
2019-03-30T23:20:41.936Z,99.90
2019-03-30T23:23:11.580Z,99.90
2019-03-30T23:25:41.220Z,99.90
2019-03-30T23:28:10.911Z,99.90
2019-03-30T23:30:53.453Z,99.90
2019-03-30T23:33:11.806Z,99.90
2019-03-30T23:35:41.466Z,99.90
2019-03-30T23:38:11.122Z,99.90
2019-03-30T23:40:40.762Z,99.90
2019-03-30T23:43:10.436Z,99.90
2019-03-30T23:45:40.092Z,99.90
2019-03-30T23:48:09.730Z,99.90
2019-03-30T23:50:39.374Z,99.90
2019-03-30T23:53:08.982Z,99.90
2019-03-30T23:55:38.600Z,99.90
2019-03-30T23:58:08.238Z,99.90
